createdAt,value
2023-03-21T00:01:36.465Z,94959.00
2023-03-21T00:05:37.013Z,94955.00
2023-03-21T00:09:36.606Z,94953.00
2023-03-21T00:13:36.684Z,94947.00
2023-03-21T00:17:36.821Z,94943.00
2023-03-21T00:21:46.571Z,94941.00
2023-03-21T00:25:38.086Z,94935.00
2023-03-21T00:29:36.848Z,94929.00
2023-03-21T00:33:36.754Z,94927.00
2023-03-21T00:37:36.687Z,94926.00
2023-03-21T00:41:42.964Z,94918.00
2023-03-21T00:45:38.336Z,94918.00
2023-03-21T00:49:36.581Z,94910.00
2023-03-21T00:53:36.551Z,94920.00
2023-03-21T00:57:39.649Z,94916.00
2023-03-21T01:01:36.528Z,94914.00
2023-03-21T01:05:36.798Z,94906.00
2023-03-21T01:09:36.396Z,94904.00
2023-03-21T01:13:38.398Z,94902.00
2023-03-21T01:17:36.405Z,94900.00
2023-03-21T01:21:36.263Z,94898.00
2023-03-21T01:25:36.345Z,94900.00
2023-03-21T01:29:36.200Z,94886.00
2023-03-21T01:33:36.169Z,94884.00
2023-03-21T01:37:36.143Z,94886.00
2023-03-21T01:41:43.125Z,94881.00
2023-03-21T01:45:37.740Z,94877.00
2023-03-21T01:49:36.058Z,94875.00
2023-03-21T01:53:36.540Z,94875.00
2023-03-21T01:57:45.164Z,94867.00
2023-03-21T02:01:36.926Z,94861.00
2023-03-21T02:05:36.154Z,94859.00
2023-03-21T02:09:35.819Z,94857.00
2023-03-21T02:13:35.783Z,94855.00
2023-03-21T02:17:35.821Z,94849.00
2023-03-21T02:21:35.734Z,94851.00
2023-03-21T02:25:36.739Z,94849.00
2023-03-21T02:29:35.908Z,94847.00
2023-03-21T02:33:35.883Z,94849.00
2023-03-21T02:37:38.573Z,94849.00
2023-03-21T02:41:40.055Z,94849.00
2023-03-21T02:45:36.003Z,94851.00
2023-03-21T02:49:42.516Z,94849.00
2023-03-21T02:53:35.782Z,94849.00
2023-03-21T02:57:42.580Z,94851.00
2023-03-21T03:01:36.812Z,94847.00
2023-03-21T03:05:35.655Z,94849.00
2023-03-21T03:09:35.695Z,94843.00
2023-03-21T03:13:36.578Z,94849.00
2023-03-21T03:17:35.580Z,94849.00
2023-03-21T03:21:35.549Z,94849.00
2023-03-21T03:25:42.407Z,94847.00
2023-03-21T03:29:36.510Z,94845.00
2023-03-21T03:33:35.416Z,94841.00
2023-03-21T03:37:35.438Z,94837.00
2023-03-21T03:42:00.851Z,94837.00
2023-03-21T03:45:36.295Z,94839.00
2023-03-21T03:49:35.321Z,94835.00
2023-03-21T03:53:35.282Z,94834.00
2023-03-21T03:57:35.187Z,94835.00
2023-03-21T04:01:35.192Z,94835.00
2023-03-21T04:05:35.094Z,94837.00
2023-03-21T04:09:44.018Z,94839.00
2023-03-21T04:13:36.065Z,94834.00
2023-03-21T04:17:35.016Z,94835.00
2023-03-21T04:21:35.024Z,94834.00
2023-03-21T04:25:35.035Z,94835.00
2023-03-21T04:29:34.992Z,94837.00
2023-03-21T04:33:34.904Z,94835.00
2023-03-21T04:37:34.813Z,94841.00
2023-03-21T04:41:34.781Z,94841.00
2023-03-21T04:45:34.833Z,94839.00
2023-03-21T04:49:34.731Z,94841.00
2023-03-21T04:53:34.759Z,94837.00
2023-03-21T04:57:34.796Z,94837.00
2023-03-21T05:01:35.113Z,94837.00
2023-03-21T05:05:34.770Z,94841.00
2023-03-21T05:09:34.756Z,94843.00
2023-03-21T05:13:34.825Z,94847.00
2023-03-21T05:17:34.802Z,94851.00
2023-03-21T05:21:34.817Z,94851.00
2023-03-21T05:25:34.829Z,94849.00
2023-03-21T05:29:34.821Z,94849.00
2023-03-21T05:33:34.885Z,94847.00
2023-03-21T05:37:34.886Z,94853.00
2023-03-21T05:41:34.858Z,94851.00
2023-03-21T05:45:34.800Z,94853.00
2023-03-21T05:49:34.840Z,94857.00
2023-03-21T05:53:34.846Z,94859.00
2023-03-21T05:57:34.900Z,94861.00
2023-03-21T06:01:36.122Z,94861.00
2023-03-21T06:05:35.014Z,94857.00
2023-03-21T06:09:35.184Z,94857.00
2023-03-21T06:13:35.338Z,94857.00
2023-03-21T06:17:35.473Z,94857.00
2023-03-21T06:21:35.436Z,94861.00
2023-03-21T06:25:35.427Z,94859.00
2023-03-21T06:29:36.004Z,94857.00
2023-03-21T06:33:35.313Z,94857.00
2023-03-21T06:37:35.373Z,94857.00
2023-03-21T06:41:35.650Z,94853.00
2023-03-21T06:45:35.759Z,94857.00
2023-03-21T06:49:35.179Z,94855.00
2023-03-21T06:53:36.153Z,94853.00
2023-03-21T06:57:35.133Z,94857.00
2023-03-21T07:01:35.094Z,94853.00
2023-03-21T07:05:35.072Z,94857.00
2023-03-21T07:09:36.232Z,94861.00
2023-03-21T07:13:35.018Z,94867.00
2023-03-21T07:17:35.656Z,94867.00
2023-03-21T07:21:35.384Z,94867.00
2023-03-21T07:25:36.664Z,94869.00
2023-03-21T07:29:34.996Z,94863.00
2023-03-21T07:33:36.161Z,94861.00
2023-03-21T07:37:38.231Z,94855.00
2023-03-21T07:41:34.928Z,94859.00
2023-03-21T07:45:35.224Z,94861.00
2023-03-21T07:49:36.134Z,94855.00
2023-03-21T07:53:34.835Z,94857.00
2023-03-21T07:57:34.956Z,94857.00
2023-03-21T08:01:35.806Z,94855.00
2023-03-21T08:05:34.766Z,94861.00
2023-03-21T08:09:34.864Z,94863.00
2023-03-21T08:13:35.004Z,94861.00
2023-03-21T08:17:35.234Z,94857.00
2023-03-21T08:21:35.406Z,94853.00
2023-03-21T08:25:35.755Z,94849.00
2023-03-21T08:29:35.716Z,94853.00
2023-03-21T08:33:35.892Z,94853.00
2023-03-21T08:37:35.980Z,94849.00
2023-03-21T08:41:36.297Z,94845.00
2023-03-21T08:45:36.692Z,94847.00
2023-03-21T08:49:36.545Z,94841.00
2023-03-21T08:53:39.643Z,94835.00
2023-03-21T08:57:36.769Z,94835.00
2023-03-21T09:01:36.600Z,94830.00
2023-03-21T09:05:38.814Z,94824.00
2023-03-21T09:09:36.775Z,94828.00
2023-03-21T09:13:36.857Z,94822.00
2023-03-21T09:17:36.919Z,94822.00
2023-03-21T09:21:36.992Z,94818.00
2023-03-21T09:25:38.156Z,94818.00
2023-03-21T09:29:37.200Z,94816.00
2023-03-21T09:33:37.121Z,94810.00
2023-03-21T09:37:37.364Z,94798.00
2023-03-21T09:41:37.444Z,94794.00
2023-03-21T09:45:37.659Z,94790.00
2023-03-21T09:49:37.515Z,94788.00
2023-03-21T09:53:37.652Z,94782.00
2023-03-21T09:57:37.574Z,94779.00
2023-03-21T10:05:59.306Z,94773.00
2023-03-21T10:09:56.507Z,94771.00
2023-03-21T10:13:56.421Z,94769.00
2023-03-21T10:17:56.357Z,94767.00
2023-03-21T10:22:02.193Z,94763.00
2023-03-21T10:25:58.254Z,94761.00
2023-03-21T10:29:56.682Z,94757.00
2023-03-21T10:33:56.853Z,94751.00
2023-03-21T10:37:56.828Z,94745.00
2023-03-21T10:41:56.866Z,94737.00
2023-03-21T10:45:56.885Z,94735.00
2023-03-21T10:50:07.153Z,94733.00
2023-03-21T10:53:57.685Z,94728.00
2023-03-21T10:57:56.607Z,94722.00
2023-03-21T11:01:56.757Z,94722.00
2023-03-21T11:05:56.735Z,94720.00
2023-03-21T11:09:57.224Z,94716.00
2023-03-21T11:13:56.523Z,94710.00
2023-03-21T11:17:56.623Z,94704.00
2023-03-21T11:21:56.460Z,94700.00
2023-03-21T11:25:56.749Z,94700.00
2023-03-21T11:29:59.970Z,94694.00
2023-03-21T11:33:58.231Z,94686.00
2023-03-21T11:37:56.277Z,94683.00
2023-03-21T11:41:57.052Z,94683.00
2023-03-21T11:45:56.348Z,94673.00
2023-03-21T11:50:04.544Z,94667.00
2023-03-21T11:53:57.501Z,94659.00
2023-03-21T11:58:00.160Z,94657.00
2023-03-21T12:01:56.551Z,94645.00
2023-03-21T12:05:56.843Z,94639.00
2023-03-21T12:09:56.479Z,94626.00
2023-03-21T12:13:56.438Z,94624.00
2023-03-21T12:17:56.342Z,94618.00
2023-03-21T12:22:00.522Z,94610.00
2023-03-21T12:25:56.404Z,94604.00
2023-03-21T12:29:56.341Z,94596.00
2023-03-21T12:33:56.274Z,94590.00
2023-03-21T12:37:57.900Z,94583.00
2023-03-21T12:41:56.177Z,94577.00
2023-03-21T12:45:56.169Z,94577.00
2023-03-21T12:49:56.120Z,94579.00
2023-03-21T12:53:56.048Z,94577.00
2023-03-21T12:57:57.846Z,94575.00
2023-03-21T13:01:56.095Z,94569.00
2023-03-21T13:05:55.995Z,94567.00
2023-03-21T13:09:56.025Z,94565.00
2023-03-21T13:13:55.908Z,94567.00
2023-03-21T13:17:55.905Z,94559.00
2023-03-21T13:21:55.800Z,94555.00
2023-03-21T13:25:55.744Z,94553.00
2023-03-21T13:29:55.852Z,94543.00
2023-03-21T13:33:55.942Z,94538.00
2023-03-21T13:37:55.955Z,94534.00
2023-03-21T13:41:56.026Z,94530.00
2023-03-21T13:45:56.237Z,94522.00
2023-03-21T13:49:56.283Z,94518.00
2023-03-21T13:53:59.300Z,94512.00
2023-03-21T13:57:56.310Z,94506.00
2023-03-21T14:01:56.327Z,94504.00
2023-03-21T14:05:56.328Z,94500.00
2023-03-21T14:09:56.210Z,94498.00
2023-03-21T14:13:56.138Z,94494.00
2023-03-21T14:17:56.180Z,94494.00
2023-03-21T14:21:56.271Z,94492.00
2023-03-21T14:25:56.140Z,94492.00
2023-03-21T14:29:56.392Z,94489.00
2023-03-21T14:33:56.792Z,94485.00
2023-03-21T14:37:55.970Z,94479.00
2023-03-21T14:41:55.868Z,94473.00
2023-03-21T14:45:55.943Z,94471.00
2023-03-21T14:49:55.924Z,94465.00
2023-03-21T14:53:56.274Z,94467.00
2023-03-21T14:57:59.314Z,94469.00
2023-03-21T15:01:56.847Z,94463.00
2023-03-21T15:05:56.221Z,94459.00
2023-03-21T15:09:56.252Z,94457.00
2023-03-21T15:13:56.834Z,94453.00
2023-03-21T15:17:56.175Z,94451.00
2023-03-21T15:21:56.065Z,94453.00
2023-03-21T15:25:57.470Z,94455.00
2023-03-21T15:29:56.360Z,94451.00
2023-03-21T15:33:56.140Z,94449.00
2023-03-21T15:37:56.202Z,94449.00
2023-03-21T15:41:57.423Z,94447.00
2023-03-21T15:45:56.600Z,94441.00
2023-03-21T15:49:56.879Z,94436.00
2023-03-21T15:53:57.031Z,94436.00
2023-03-21T15:57:57.263Z,94437.00
2023-03-21T16:01:57.928Z,94445.00
2023-03-21T16:05:57.154Z,94449.00
2023-03-21T16:09:57.122Z,94449.00
2023-03-21T16:13:57.945Z,94453.00
2023-03-21T16:17:57.064Z,94455.00
2023-03-21T16:21:56.939Z,94453.00
2023-03-21T16:25:57.379Z,94453.00
2023-03-21T16:29:57.120Z,94451.00
2023-03-21T16:33:57.104Z,94457.00
2023-03-21T16:37:57.164Z,94459.00
2023-03-21T16:41:57.924Z,94459.00
2023-03-21T16:45:57.046Z,94463.00
2023-03-21T16:49:56.951Z,94469.00
2023-03-21T16:53:56.884Z,94475.00
2023-03-21T16:57:57.952Z,94473.00
2023-03-21T17:01:56.814Z,94479.00
2023-03-21T17:05:56.938Z,94481.00
2023-03-21T17:09:57.301Z,94481.00
2023-03-21T17:13:57.330Z,94481.00
2023-03-21T17:17:57.508Z,94483.00
2023-03-21T17:21:57.685Z,94487.00
2023-03-21T17:25:57.821Z,94491.00
2023-03-21T17:29:57.952Z,94489.00
2023-03-21T17:33:58.372Z,94491.00
2023-03-21T17:37:58.241Z,94494.00
2023-03-21T17:41:58.225Z,94494.00
2023-03-21T17:45:58.958Z,94496.00
2023-03-21T17:49:58.512Z,94498.00
2023-03-21T17:53:58.694Z,94494.00
2023-03-21T17:57:59.040Z,94500.00
2023-03-21T18:01:59.885Z,94504.00
2023-03-21T18:05:59.407Z,94506.00
2023-03-21T18:09:59.058Z,94508.00
2023-03-21T18:14:10.216Z,94510.00
2023-03-21T18:17:59.953Z,94518.00
2023-03-21T18:22:02.067Z,94522.00
2023-03-21T18:25:58.929Z,94522.00
2023-03-21T18:33:59.806Z,94534.00
2023-03-21T18:37:58.804Z,94538.00
2023-03-21T18:41:59.078Z,94545.00
2023-03-21T18:45:59.011Z,94547.00
2023-03-21T18:50:13.674Z,94543.00
2023-03-21T18:54:00.083Z,94543.00
2023-03-21T18:57:59.065Z,94547.00
2023-03-21T19:01:59.072Z,94553.00
2023-03-21T19:05:59.012Z,94559.00
2023-03-21T19:10:16.429Z,94563.00
2023-03-21T19:14:01.911Z,94567.00
2023-03-21T19:22:00.500Z,94569.00
2023-03-21T19:25:59.445Z,94573.00
2023-03-21T19:30:12.758Z,94571.00
2023-03-21T19:34:00.093Z,94573.00
2023-03-21T19:40:26.618Z,94571.00
2023-03-21T19:44:26.532Z,94573.00
2023-03-21T19:48:27.124Z,94571.00
2023-03-21T19:52:26.477Z,94575.00
2023-03-21T19:56:27.525Z,94573.00
2023-03-21T20:00:26.374Z,94575.00
2023-03-21T20:04:26.345Z,94577.00
2023-03-21T20:08:27.600Z,94577.00
2023-03-21T20:12:26.318Z,94583.00
2023-03-21T20:16:33.642Z,94585.00
2023-03-21T20:20:27.199Z,94588.00
2023-03-21T20:24:26.151Z,94592.00
2023-03-21T20:28:28.672Z,94594.00
2023-03-21T20:32:26.089Z,94594.00
2023-03-21T20:36:40.095Z,94594.00
2023-03-21T20:40:27.069Z,94594.00
2023-03-21T20:44:48.418Z,94594.00
2023-03-21T20:48:26.963Z,94596.00
2023-03-21T20:56:26.906Z,94604.00
2023-03-21T21:00:26.805Z,94604.00
2023-03-21T21:04:44.271Z,94608.00
2023-03-21T21:08:26.760Z,94612.00
2023-03-21T21:12:25.751Z,94612.00
2023-03-21T21:16:25.750Z,94616.00
2023-03-21T21:20:25.662Z,94622.00
2023-03-21T21:24:25.830Z,94624.00
2023-03-21T21:28:25.706Z,94626.00
2023-03-21T21:32:25.580Z,94624.00
2023-03-21T21:36:25.505Z,94622.00
2023-03-21T21:40:26.353Z,94626.00
2023-03-21T21:44:25.443Z,94628.00
2023-03-21T21:48:25.433Z,94624.00
2023-03-21T21:52:26.355Z,94620.00
2023-03-21T21:56:26.309Z,94620.00
2023-03-21T22:00:25.295Z,94620.00
2023-03-21T22:04:25.324Z,94618.00
2023-03-21T22:08:25.211Z,94622.00
2023-03-21T22:12:25.360Z,94626.00
2023-03-21T22:16:25.364Z,94626.00
2023-03-21T22:20:25.862Z,94622.00
2023-03-21T22:24:25.321Z,94618.00
2023-03-21T22:28:25.302Z,94616.00
2023-03-21T22:32:25.424Z,94622.00
2023-03-21T22:36:25.405Z,94620.00
2023-03-21T22:40:25.480Z,94622.00
2023-03-21T22:44:25.329Z,94630.00
2023-03-21T22:48:25.484Z,94626.00
2023-03-21T22:52:25.428Z,94630.00
2023-03-21T22:56:25.365Z,94626.00
2023-03-21T23:00:25.430Z,94626.00
2023-03-21T23:04:25.921Z,94624.00
2023-03-21T23:08:26.420Z,94632.00
2023-03-21T23:12:25.469Z,94639.00
2023-03-21T23:16:25.507Z,94628.00
2023-03-21T23:20:25.506Z,94632.00
2023-03-21T23:24:25.491Z,94630.00
2023-03-21T23:28:25.578Z,94628.00
2023-03-21T23:32:25.536Z,94626.00
2023-03-21T23:36:25.707Z,94624.00
2023-03-21T23:40:25.677Z,94622.00
2023-03-21T23:44:25.675Z,94626.00
2023-03-21T23:48:25.856Z,94628.00
2023-03-21T23:52:25.821Z,94626.00
2023-03-21T23:56:25.894Z,94630.00
